Time;durP1;ratioP1;P1;durP2;ratioP2;P2;SDS_P1;SDS_P2;PMS_P1;PMS_P2;Temp;Humidity;BMP_temperature;BMP_pressure;BME280_temperature;BME280_humidity;BME280_pressure;Samples;Min_cycle;Max_cycle;Signal;HPM_P1;HPM_P2
2022/10/25 00:01:37;;;;;;;1.50;0.90;;;;;;;11.51;100.00;98239.63;5013245;28;20240;-69
2022/10/25 00:04:04;;;;;;;2.70;1.00;;;;;;;11.51;100.00;98238.81;5014039;28;20187;-69
2022/10/25 00:06:30;;;;;;;1.20;0.97;;;;;;;11.56;100.00;98241.63;5013921;28;20218;-69
2022/10/25 00:08:57;;;;;;;1.37;1.07;;;;;;;11.53;100.00;98242.88;5013888;28;20210;-69
2022/10/25 00:11:29;;;;;;;3.27;0.90;;;;;;;11.47;100.00;98246.44;5013544;28;20732;-69
2022/10/25 00:13:58;;;;;;;2.80;1.20;;;;;;;11.40;100.00;98244.88;5013919;28;20214;-70
2022/10/25 00:16:30;;;;;;;4.03;1.20;;;;;;;11.38;100.00;98241.59;5013540;28;20240;-69
2022/10/25 00:18:57;;;;;;;3.73;1.20;;;;;;;11.37;100.00;98251.44;5013892;28;20195;-69
2022/10/25 00:21:24;;;;;;;4.43;1.13;;;;;;;11.31;100.00;98249.69;5013181;28;20238;-69
2022/10/25 00:23:51;;;;;;;1.90;1.20;;;;;;;11.35;100.00;98247.38;5014244;28;20229;-69
2022/10/25 00:26:18;;;;;;;2.77;1.10;;;;;;;11.36;100.00;98244.50;5013750;28;20215;-69
2022/10/25 00:28:45;;;;;;;2.83;1.00;;;;;;;11.32;100.00;98243.31;5013731;28;20207;-69
2022/10/25 00:31:15;;;;;;;1.57;1.00;;;;;;;11.35;100.00;98242.06;5013420;28;20231;-70
2022/10/25 00:33:42;;;;;;;5.70;1.20;;;;;;;11.41;100.00;98238.50;5013359;28;20253;-69
2022/10/25 00:36:12;;;;;;;1.93;1.07;;;;;;;11.36;100.00;98238.34;5013698;28;20218;-69
2022/10/25 00:38:39;;;;;;;1.77;0.97;;;;;;;11.28;100.00;98232.28;5013672;28;20209;-69
2022/10/25 00:41:07;;;;;;;1.93;1.10;;;;;;;11.31;100.00;98239.03;5013509;28;20237;-69
2022/10/25 00:43:46;;;;;;;2.60;1.20;;;;;;;11.39;100.00;98246.72;5013626;28;20305;-69
2022/10/25 00:46:18;;;;;;;1.13;1.00;;;;;;;11.58;100.00;98235.03;5013319;28;20673;-69
2022/10/25 00:48:54;;;;;;;1.30;1.00;;;;;;;11.66;100.00;98244.66;5013325;28;20195;-70
2022/10/25 00:51:24;;;;;;;3.60;1.00;;;;;;;11.87;100.00;98239.69;5013529;28;20230;-69
2022/10/25 00:53:51;;;;;;;1.47;1.00;;;;;;;11.90;100.00;98241.09;5012056;28;20226;-70
2022/10/25 00:56:21;;;;;;;1.37;0.90;;;;;;;11.96;100.00;98242.84;5013511;28;20207;-70
2022/10/25 00:58:53;;;;;;;2.83;1.20;;;;;;;12.05;100.00;98242.34;5013529;28;20202;-70
2022/10/25 01:01:19;;;;;;;3.40;1.30;;;;;;;12.10;100.00;98244.31;5013369;28;20238;-70
2022/10/25 01:03:48;;;;;;;3.03;1.23;;;;;;;12.12;100.00;98247.59;5013384;28;20207;-69
2022/10/25 01:06:23;;;;;;;3.13;1.13;;;;;;;12.07;100.00;98240.25;5013937;28;20211;-70
2022/10/25 01:08:52;;;;;;;2.20;1.17;;;;;;;12.07;100.00;98244.78;5013418;28;20198;-69
2022/10/25 01:11:19;;;;;;;1.87;1.13;;;;;;;12.11;100.00;98238.78;5012967;28;20238;-69
2022/10/25 01:13:47;;;;;;;5.03;1.30;;;;;;;12.01;100.00;98248.31;5013285;28;20213;-70
2022/10/25 01:16:22;;;;;;;2.43;1.20;;;;;;;11.94;100.00;98250.28;5012818;28;20587;-69
2022/10/25 01:19:02;;;;;;;3.93;1.33;;;;;;;11.97;100.00;98236.50;5012959;28;20194;-69
2022/10/25 01:21:31;;;;;;;2.30;1.27;;;;;;;11.87;100.00;98231.69;5011674;28;20237;-70
2022/10/25 01:24:20;;;;;;;2.10;1.23;;;;;;;12.00;100.00;98238.72;5013207;28;20207;-70
2022/10/25 01:26:59;;;;;;;4.13;1.20;;;;;;;11.84;100.00;98239.34;5013243;28;20191;-69
2022/10/25 01:29:56;;;;;;;4.53;1.50;;;;;;;11.93;100.00;98235.34;5012832;28;20611;-70
2022/10/25 01:32:40;;;;;;;4.43;1.73;;;;;;;11.81;100.00;98237.94;5013029;28;20202;-70
2022/10/25 01:35:19;;;;;;;3.37;1.57;;;;;;;11.72;100.00;98228.59;5015604;28;20195;-70
2022/10/25 01:38:02;;;;;;;5.10;1.10;;;;;;;11.59;100.00;98226.03;5016653;28;20190;-69
2022/10/25 01:40:38;;;;;;;2.97;1.37;;;;;;;11.61;100.00;98229.31;5015047;28;20226;-70
2022/10/25 01:43:13;;;;;;;2.57;1.33;;;;;;;11.58;100.00;98226.25;5016256;28;20642;-70
2022/10/25 01:46:22;;;;;;;3.70;1.57;;;;;;;11.58;100.00;98231.59;5015347;28;20217;-70
2022/10/25 01:48:55;;;;;;;2.67;1.37;;;;;;;11.61;100.00;98239.19;5015153;28;20210;-70
2022/10/25 01:51:22;;;;;;;2.30;1.30;;;;;;;11.57;100.00;98240.63;5015258;28;20224;-70
2022/10/25 01:53:51;;;;;;;3.13;1.43;;;;;;;11.52;100.00;98246.59;5016366;28;20207;-70
2022/10/25 01:56:39;;;;;;;1.60;1.40;;;;;;;11.51;100.00;98244.97;5016021;28;20662;-70
2022/10/25 01:59:37;;;;;;;4.47;1.20;;;;;;;11.41;100.00;98250.00;5014796;28;20191;-69
2022/10/25 02:02:18;;;;;;;3.07;1.57;;;;;;;11.38;100.00;98239.75;5016086;28;20307;-69
2022/10/25 02:05:08;;;;;;;1.63;1.30;;;;;;;11.34;100.00;98245.75;5016131;28;20214;-70
2022/10/25 02:07:38;;;;;;;2.43;1.50;;;;;;;11.36;100.00;98249.00;5016072;28;20209;-70
2022/10/25 02:10:08;;;;;;;1.60;1.40;;;;;;;11.32;100.00;98248.63;5015995;28;20231;-70
2022/10/25 02:12:48;;;;;;;1.93;1.40;;;;;;;11.27;100.00;98253.81;5016000;28;20556;-70
2022/10/25 02:15:31;;;;;;;1.40;1.30;;;;;;;11.23;100.00;98247.28;5014581;28;20210;-69
2022/10/25 02:18:01;;;;;;;4.70;1.80;;;;;;;11.22;100.00;98239.50;5015951;28;20191;-70
2022/10/25 02:20:32;;;;;;;6.97;1.80;;;;;;;11.20;100.00;98247.72;5015490;28;20223;-70
2022/10/25 02:23:02;;;;;;;4.93;1.50;;;;;;;11.18;100.00;98240.97;5015822;28;20210;-70
2022/10/25 02:25:32;;;;;;;5.10;2.00;;;;;;;11.16;100.00;98238.53;5015694;28;20203;-70
2022/10/25 02:28:03;;;;;;;2.20;1.43;;;;;;;11.10;100.00;98236.75;5015999;28;20210;-69
2022/10/25 02:30:33;;;;;;;2.47;1.40;;;;;;;11.09;100.00;98251.09;5015662;28;20230;-70
2022/10/25 02:33:00;;;;;;;4.67;1.67;;;;;;;11.13;100.00;98249.63;5015668;28;20559;-70
2022/10/25 02:35:27;;;;;;;3.53;1.63;;;;;;;11.05;100.00;98242.72;5015311;28;20212;-70
2022/10/25 02:37:53;;;;;;;2.80;1.57;;;;;;;11.02;100.00;98242.34;5015223;28;20685;-69
2022/10/25 02:40:20;;;;;;;4.00;1.50;;;;;;;11.05;100.00;98237.38;5015066;28;20234;-70
2022/10/25 02:42:46;;;;;;;4.23;1.63;;;;;;;11.07;100.00;98235.34;5015039;28;20709;-70
2022/10/25 02:45:13;;;;;;;3.83;1.80;;;;;;;11.15;100.00;98239.56;5014834;28;20566;-70
2022/10/25 02:47:39;;;;;;;2.87;1.27;;;;;;;11.16;100.00;98232.41;5014994;28;20210;-69
2022/10/25 02:50:06;;;;;;;4.10;1.87;;;;;;;11.18;100.00;98227.66;5014842;28;20231;-70
2022/10/25 02:52:32;;;;;;;4.20;1.80;;;;;;;11.14;100.00;98230.75;5015220;28;20203;-69
2022/10/25 02:54:58;;;;;;;3.43;1.50;;;;;;;11.17;100.00;98226.84;5015026;28;20213;-70
2022/10/25 02:57:25;;;;;;;2.70;1.43;;;;;;;11.17;100.00;98226.84;5014626;28;20207;-70
2022/10/25 02:59:51;;;;;;;4.27;1.83;;;;;;;11.17;100.00;98231.38;5014832;28;20379;-70
2022/10/25 03:02:18;;;;;;;5.43;1.80;;;;;;;11.14;100.00;98228.09;5014850;28;20226;-69
2022/10/25 03:04:44;;;;;;;5.30;1.90;;;;;;;11.07;100.00;98225.75;5014955;28;20214;-70
2022/10/25 03:07:11;;;;;;;3.17;1.70;;;;;;;11.09;100.00;98232.47;5015339;28;20211;-70
2022/10/25 03:09:37;;;;;;;3.80;1.60;;;;;;;11.05;100.00;98233.94;5014474;28;20667;-69
2022/10/25 03:12:03;;;;;;;4.40;1.50;;;;;;;11.03;100.00;98217.34;5014800;28;20234;-69
2022/10/25 03:14:30;;;;;;;2.10;1.50;;;;;;;11.01;100.00;98224.75;5014630;28;20214;-70
2022/10/25 03:16:56;;;;;;;2.90;1.70;;;;;;;10.99;100.00;98232.94;5014378;28;20217;-69
2022/10/25 03:19:23;;;;;;;5.50;1.80;;;;;;;11.00;100.00;98228.44;5014373;28;20206;-69
2022/10/25 03:21:49;;;;;;;3.47;1.50;;;;;;;10.98;100.00;98222.50;5014484;28;20253;-70
2022/10/25 03:24:15;;;;;;;5.83;1.37;;;;;;;11.03;100.00;98235.97;5014631;28;20206;-69
2022/10/25 03:26:42;;;;;;;4.50;1.70;;;;;;;11.00;100.00;98236.44;5014567;28;20217;-70
2022/10/25 03:29:09;;;;;;;6.57;1.60;;;;;;;10.95;100.00;98238.94;5014222;28;20207;-70
2022/10/25 03:31:36;;;;;;;3.73;1.60;;;;;;;10.94;100.00;98242.59;5014377;28;20226;-69
2022/10/25 03:34:02;;;;;;;4.57;1.77;;;;;;;10.94;100.00;98239.94;5014379;28;20229;-69
2022/10/25 03:36:28;;;;;;;3.27;1.60;;;;;;;11.03;100.00;98239.47;5014371;28;20213;-70
2022/10/25 03:38:55;;;;;;;4.20;1.77;;;;;;;11.10;100.00;98242.06;5014248;28;20209;-70
2022/10/25 03:41:21;;;;;;;3.73;1.70;;;;;;;11.05;100.00;98239.25;5013764;28;20222;-70
2022/10/25 03:43:47;;;;;;;5.63;1.70;;;;;;;11.17;100.00;98237.50;5013712;28;20207;-69
2022/10/25 03:46:14;;;;;;;2.40;1.53;;;;;;;11.20;100.00;98245.03;5014160;28;20577;-69
2022/10/25 03:48:40;;;;;;;3.37;1.70;;;;;;;11.27;100.00;98250.31;5014115;28;20210;-69
2022/10/25 03:51:07;;;;;;;6.23;1.83;;;;;;;11.20;100.00;98253.03;5013714;28;20234;-70
2022/10/25 03:53:33;;;;;;;2.70;1.60;;;;;;;11.28;100.00;98250.91;5013922;28;20576;-70
2022/10/25 03:55:59;;;;;;;5.57;2.00;;;;;;;11.23;100.00;98251.78;5013501;28;20233;-69
2022/10/25 03:58:26;;;;;;;2.97;1.70;;;;;;;11.28;100.00;98250.91;5014010;28;20214;-69
2022/10/25 04:00:52;;;;;;;4.27;2.10;;;;;;;11.31;100.00;98259.50;5013562;28;20254;-69
2022/10/25 04:03:18;;;;;;;2.87;1.77;;;;;;;11.37;100.00;98254.13;5014378;28;20234;-70
2022/10/25 04:05:45;;;;;;;3.73;1.83;;;;;;;11.34;100.00;98254.53;5013733;28;20206;-69
2022/10/25 04:08:11;;;;;;;4.30;1.70;;;;;;;11.37;100.00;98248.78;5013734;28;20207;-70
2022/10/25 04:10:37;;;;;;;5.90;2.00;;;;;;;11.44;100.00;98252.19;5013677;28;20226;-69
2022/10/25 04:13:04;;;;;;;4.83;1.80;;;;;;;11.44;100.00;98252.19;5014202;28;20211;-69
2022/10/25 04:15:30;;;;;;;4.30;1.73;;;;;;;11.44;100.00;98252.19;5014235;28;20223;-70
2022/10/25 04:17:57;;;;;;;2.63;1.63;;;;;;;11.49;100.00;98255.00;5013639;28;20286;-69
2022/10/25 04:20:23;;;;;;;4.50;1.60;;;;;;;11.51;100.00;98250.28;5013397;28;20227;-69
2022/10/25 04:22:53;;;;;;;5.27;1.87;;;;;;;11.53;100.00;98258.06;5013188;28;20226;-69
2022/10/25 04:25:20;;;;;;;3.53;1.80;;;;;;;11.60;100.00;98248.19;5013592;28;20206;-70
2022/10/25 04:27:47;;;;;;;4.43;1.83;;;;;;;11.54;100.00;98257.84;5013456;28;20223;-69
2022/10/25 04:30:13;;;;;;;4.13;1.70;;;;;;;11.57;100.00;98254.72;5013437;28;20231;-70
2022/10/25 04:32:39;;;;;;;3.93;1.93;;;;;;;11.56;100.00;98254.94;5013160;28;20199;-70
2022/10/25 04:35:06;;;;;;;5.33;1.90;;;;;;;11.52;100.00;98251.13;5013496;28;20204;-69
2022/10/25 04:37:32;;;;;;;5.03;1.80;;;;;;;11.46;100.00;98252.81;5013401;28;20218;-70
2022/10/25 04:39:59;;;;;;;4.87;2.00;;;;;;;11.42;100.00;98256.94;5013761;28;20235;-69
2022/10/25 04:42:25;;;;;;;3.83;1.97;;;;;;;11.41;100.00;98263.28;5012828;28;20233;-70
2022/10/25 04:44:51;;;;;;;4.30;1.63;;;;;;;11.45;100.00;98261.81;5012908;28;20210;-70
2022/10/25 04:47:18;;;;;;;4.90;1.83;;;;;;;11.60;100.00;98259.66;5013337;28;20561;-70
2022/10/25 04:49:44;;;;;;;4.90;1.80;;;;;;;11.57;100.00;98262.72;5013667;28;20229;-70
2022/10/25 04:52:10;;;;;;;4.33;1.80;;;;;;;11.64;100.00;98266.16;5013148;28;20567;-70
2022/10/25 04:54:37;;;;;;;3.27;1.60;;;;;;;11.60;100.00;98254.31;5013226;28;20544;-70
2022/10/25 04:57:03;;;;;;;5.00;1.60;;;;;;;11.54;100.00;98265.00;5012952;28;20211;-70
2022/10/25 04:59:29;;;;;;;3.70;1.97;;;;;;;11.55;100.00;98262.13;5013066;28;20229;-69
2022/10/25 05:01:56;;;;;;;2.80;1.60;;;;;;;11.57;100.00;98268.03;5012593;28;20588;-70
2022/10/25 05:04:23;;;;;;;4.57;1.60;;;;;;;11.50;100.00;98264.66;5012521;28;20207;-69
2022/10/25 05:06:49;;;;;;;6.50;1.73;;;;;;;11.46;100.00;98255.47;5012625;28;20213;-70
2022/10/25 05:09:16;;;;;;;4.97;2.03;;;;;;;11.56;100.00;98263.75;5015831;28;20211;-70
2022/10/25 05:11:42;;;;;;;3.47;1.83;;;;;;;11.46;100.00;98267.94;5016255;28;20309;-70
2022/10/25 05:14:08;;;;;;;5.27;1.70;;;;;;;11.50;100.00;98264.66;5016483;28;20230;-72
2022/10/25 05:16:35;;;;;;;4.63;2.03;;;;;;;11.48;100.00;98268.56;5016365;28;20309;-69
2022/10/25 05:19:01;;;;;;;6.40;1.70;;;;;;;11.44;100.00;98272.69;5016161;28;20217;-72
2022/10/25 05:21:29;;;;;;;4.00;1.67;;;;;;;11.49;100.00;98281.63;5016416;28;20230;-71
2022/10/25 05:24:00;;;;;;;2.97;1.80;;;;;;;11.50;100.00;98277.13;5015823;28;20261;-69
2022/10/25 05:26:27;;;;;;;6.60;1.80;;;;;;;11.47;100.00;98275.72;5015812;28;20191;-69
2022/10/25 05:28:55;;;;;;;2.90;1.60;;;;;;;11.43;100.00;98279.06;5016903;28;20206;-69
2022/10/25 05:31:24;;;;;;;2.50;1.80;;;;;;;11.36;100.00;98279.09;5015927;28;20228;-69
2022/10/25 05:33:53;;;;;;;5.07;1.83;;;;;;;11.30;100.00;98290.59;5015888;28;20203;-69
2022/10/25 05:36:20;;;;;;;6.50;1.80;;;;;;;11.25;100.00;98285.13;5015778;28;20231;-69
2022/10/25 05:38:47;;;;;;;4.43;1.77;;;;;;;11.21;100.00;98283.13;5015793;28;20222;-70
2022/10/25 05:41:15;;;;;;;3.80;2.00;;;;;;;11.16;100.00;98280.31;5015754;28;20241;-69
2022/10/25 05:43:41;;;;;;;5.23;1.90;;;;;;;11.09;100.00;98283.03;5015903;28;20238;-69
2022/10/25 05:46:11;;;;;;;3.70;1.73;;;;;;;11.06;100.00;98280.78;5016114;28;20207;-69
2022/10/25 05:48:38;;;;;;;4.77;2.10;;;;;;;11.06;100.00;98278.13;5015530;28;20223;-69
2022/10/25 05:51:13;;;;;;;6.00;1.80;;;;;;;11.07;100.00;98282.41;5015344;28;20230;-69
2022/10/25 05:53:47;;;;;;;7.30;2.20;;;;;;;11.08;100.00;98287.50;5014950;28;20203;-69
2022/10/25 05:56:15;;;;;;;2.70;1.90;;;;;;;11.05;100.00;98284.47;5015418;28;20198;-70
2022/10/25 05:58:41;;;;;;;4.87;2.03;;;;;;;11.08;100.00;98292.00;5015137;28;20213;-70
2022/10/25 06:01:13;;;;;;;5.33;1.90;;;;;;;11.15;100.00;98295.44;5015637;28;20238;-70
2022/10/25 06:03:40;;;;;;;6.27;1.83;;;;;;;11.13;100.00;98297.53;5015396;28;20222;-70
2022/10/25 06:06:09;;;;;;;4.70;2.00;;;;;;;11.19;100.00;98294.00;5015356;28;20243;-69
2022/10/25 06:08:36;;;;;;;2.60;1.73;;;;;;;11.17;100.00;98296.03;5015659;28;20206;-70
2022/10/25 06:11:06;;;;;;;5.10;1.93;;;;;;;11.22;100.00;98309.53;5015407;28;20227;-70
2022/10/25 06:13:33;;;;;;;2.73;2.30;;;;;;;11.21;100.00;98302.56;5015568;28;20203;-70
2022/10/25 06:16:03;;;;;;;4.20;1.73;;;;;;;11.27;100.00;98296.38;5015247;28;20572;-69
2022/10/25 06:18:30;;;;;;;6.60;2.10;;;;;;;11.27;100.00;98300.88;5015173;28;20191;-70
2022/10/25 06:20:56;;;;;;;3.83;2.13;;;;;;;11.32;100.00;98304.53;5014778;28;20233;-69
2022/10/25 06:23:22;;;;;;;5.53;1.93;;;;;;;11.36;100.00;98304.91;5014843;28;20229;-70
2022/10/25 06:25:49;;;;;;;5.80;2.03;;;;;;;11.43;100.00;98303.00;5015192;28;20325;-69
2022/10/25 06:28:15;;;;;;;4.40;1.77;;;;;;;11.42;100.00;98317.34;5014872;28;20232;-70
2022/10/25 06:30:41;;;;;;;3.23;1.83;;;;;;;11.41;100.00;98329.84;5015306;28;20230;-70
2022/10/25 06:33:08;;;;;;;3.17;1.70;;;;;;;11.57;100.00;98333.81;5014965;28;20206;-70
2022/10/25 06:35:34;;;;;;;7.03;1.93;;;;;;;11.54;100.00;98331.56;5014558;28;20226;-69
2022/10/25 06:38:00;;;;;;;4.57;1.90;;;;;;;11.59;100.00;98337.88;5014313;28;20252;-69
2022/10/25 06:40:27;;;;;;;2.67;1.70;;;;;;;11.60;100.00;98349.38;5014465;28;20281;-69
2022/10/25 06:42:56;;;;;;;5.00;1.80;;;;;;;11.62;100.00;98348.09;5014479;28;20246;-70
2022/10/25 06:45:24;;;;;;;4.57;1.83;;;;;;;11.68;100.00;98357.91;5014815;28;20203;-70
2022/10/25 06:47:50;;;;;;;4.27;2.00;;;;;;;11.67;100.00;98350.94;5014515;28;20206;-70
2022/10/25 06:50:16;;;;;;;3.47;1.80;;;;;;;11.66;100.00;98357.28;5014345;28;20241;-70
2022/10/25 06:52:43;;;;;;;3.77;1.70;;;;;;;11.68;100.00;98363.25;5014220;28;20208;-70
2022/10/25 06:55:09;;;;;;;9.00;2.33;;;;;;;11.74;100.00;98373.00;5014445;28;20210;-70
2022/10/25 06:57:35;;;;;;;3.27;1.80;;;;;;;11.82;100.00;98369.25;5014622;28;20574;-70
2022/10/25 07:00:02;;;;;;;4.17;1.70;;;;;;;11.90;100.00;98380.47;5014586;28;20228;-69
2022/10/25 07:02:28;;;;;;;3.97;1.77;;;;;;;11.95;100.00;98382.44;5014452;28;20227;-70
2022/10/25 07:04:54;;;;;;;2.70;1.50;;;;;;;12.03;100.00;98382.97;5015178;28;20211;-69
2022/10/25 07:07:21;;;;;;;5.43;1.97;;;;;;;12.10;100.00;98378.41;5015168;28;20209;-70
2022/10/25 07:09:47;;;;;;;3.97;1.60;;;;;;;12.13;100.00;98382.47;5014371;28;20217;-70
2022/10/25 07:12:13;;;;;;;5.87;2.00;;;;;;;12.18;100.00;98379.97;5014463;28;20203;-70
2022/10/25 07:14:40;;;;;;;3.33;1.80;;;;;;;12.21;100.00;98385.66;5014192;28;20209;-69
2022/10/25 07:17:06;;;;;;;3.93;1.70;;;;;;;12.26;100.00;98383.13;5014424;28;20192;-70
2022/10/25 07:19:33;;;;;;;4.63;1.60;;;;;;;12.38;100.00;98384.03;5014126;28;20690;-70
2022/10/25 07:21:59;;;;;;;3.83;1.80;;;;;;;12.40;100.00;98390.00;5014179;28;20229;-70
2022/10/25 07:24:25;;;;;;;3.90;1.67;;;;;;;12.51;100.00;98391.91;5013527;28;20220;-70
2022/10/25 07:26:52;;;;;;;5.07;2.23;;;;;;;12.47;100.00;98385.38;5013654;28;20669;-70
2022/10/25 07:29:18;;;;;;;7.90;2.00;;;;;;;12.48;100.00;98392.34;5013961;28;20300;-70
2022/10/25 07:31:45;;;;;;;4.93;1.83;;;;;;;12.51;100.00;98385.72;5013387;28;20238;-70
2022/10/25 07:34:13;;;;;;;5.23;2.00;;;;;;;12.50;100.00;98392.94;5014103;28;20294;-70
2022/10/25 07:36:40;;;;;;;5.17;1.90;;;;;;;12.50;100.00;98390.28;5014267;28;20206;-70
2022/10/25 07:39:06;;;;;;;6.40;1.80;;;;;;;12.52;100.00;98398.84;5014007;28;20210;-70
2022/10/25 07:41:34;;;;;;;3.83;1.60;;;;;;;12.59;100.00;98396.13;5013651;28;20226;-70
2022/10/25 07:44:01;;;;;;;5.57;1.90;;;;;;;12.64;100.00;98396.25;5013893;28;20287;-70
2022/10/25 07:46:27;;;;;;;4.47;1.80;;;;;;;12.68;100.00;98392.09;5014065;28;20551;-70
2022/10/25 07:48:53;;;;;;;2.80;1.37;;;;;;;12.76;100.00;98402.47;5013913;28;20207;-70
2022/10/25 07:51:20;;;;;;;4.07;1.77;;;;;;;12.91;100.00;98397.56;5013844;28;20225;-70
2022/10/25 07:53:46;;;;;;;4.70;2.10;;;;;;;12.89;100.00;98399.66;5013694;28;20216;-70
2022/10/25 07:56:14;;;;;;;3.87;1.60;;;;;;;12.90;100.00;98398.59;5013767;28;20216;-70
2022/10/25 07:58:41;;;;;;;5.40;1.77;;;;;;;12.96;100.00;98406.53;5013659;28;20288;-70
2022/10/25 08:01:09;;;;;;;4.03;1.83;;;;;;;13.00;100.00;98398.91;5013685;28;20226;-70
2022/10/25 08:03:36;;;;;;;3.47;1.70;;;;;;;13.11;100.00;98400.81;5013566;28;20233;-70
2022/10/25 08:06:03;;;;;;;6.57;1.77;;;;;;;13.19;100.00;98398.63;5013655;28;20241;-70
2022/10/25 08:08:30;;;;;;;7.13;1.50;;;;;;;13.33;100.00;98396.59;5014173;28;20209;-70
2022/10/25 08:10:58;;;;;;;2.07;1.37;;;;;;;13.27;100.00;98395.66;5013245;28;20702;-70
2022/10/25 08:13:25;;;;;;;4.13;1.57;;;;;;;13.24;100.00;98398.78;5013678;28;20300;-70
2022/10/25 08:15:56;;;;;;;2.40;1.53;;;;;;;13.25;100.00;98399.59;5013768;28;20214;-70
2022/10/25 08:18:23;;;;;;;6.83;1.70;;;;;;;13.37;100.00;98401.25;5013772;28;20213;-70
2022/10/25 08:20:50;;;;;;;2.57;1.60;;;;;;;13.46;100.00;98401.72;5013524;28;20227;-70
2022/10/25 08:23:16;;;;;;;3.93;1.50;;;;;;;13.57;100.00;98400.97;5013402;28;20226;-70
2022/10/25 08:25:42;;;;;;;2.30;1.27;;;;;;;13.67;100.00;98396.69;5013630;28;20215;-70
2022/10/25 08:28:09;;;;;;;3.37;1.70;;;;;;;13.60;100.00;98393.28;5013039;28;20217;-70
2022/10/25 08:30:36;;;;;;;3.23;1.53;;;;;;;13.71;100.00;98392.47;5013325;28;20231;-70
2022/10/25 08:33:02;;;;;;;2.67;1.50;;;;;;;13.72;100.00;98404.81;5013496;28;20566;-70
2022/10/25 08:35:29;;;;;;;4.03;1.60;;;;;;;13.80;100.00;98395.66;5013310;28;20213;-70
2022/10/25 08:37:55;;;;;;;4.90;1.50;;;;;;;13.85;100.00;98390.41;5013512;28;20218;-70
2022/10/25 08:40:42;;;;;;;4.87;1.57;;;;;;;13.87;100.00;98397.16;5013279;28;20233;-70
2022/10/25 08:43:27;;;;;;;6.23;1.70;;;;;;;13.96;100.00;98398.44;5015289;28;20215;-70
2022/10/25 08:45:56;;;;;;;3.43;1.30;;;;;;;14.07;100.00;98402.19;5016952;28;20198;-70
2022/10/25 08:48:30;;;;;;;2.90;1.37;;;;;;;14.13;100.00;98399.38;5017390;28;20210;-70
2022/10/25 08:51:03;;;;;;;3.30;1.60;;;;;;;14.27;100.00;98405.31;5016204;28;20589;-70
2022/10/25 08:53:39;;;;;;;2.90;1.30;;;;;;;14.35;100.00;98408.47;5016088;28;20197;-70
2022/10/25 08:56:10;;;;;;;5.33;1.33;;;;;;;14.45;100.00;98403.34;5016097;28;20199;-70
2022/10/25 08:58:44;;;;;;;3.63;1.23;;;;;;;14.64;100.00;98402.13;5016113;28;20205;-70
2022/10/25 09:01:18;;;;;;;5.50;1.57;;;;;;;14.53;100.00;98408.34;5017236;28;20261;-70
2022/10/25 09:03:45;;;;;;;3.53;1.50;;;;;;;14.61;100.00;98413.31;5017519;28;20216;-70
2022/10/25 09:06:17;;;;;;;5.40;1.30;;;;;;;14.56;100.00;98415.09;5016946;28;20555;-70
2022/10/25 09:09:19;;;;;;;4.30;1.37;;;;;;;14.66;100.00;98410.72;5016698;28;20190;-70
2022/10/25 09:12:33;;;;;;;3.90;1.70;;;;;;;14.75;100.00;98421.91;5004859;28;20237;-70
2022/10/25 09:15:19;;;;;;;3.83;1.40;;;;;;;14.97;100.00;98414.88;5003668;28;20222;-70
2022/10/25 09:17:53;;;;;;;4.63;1.50;;;;;;;15.08;100.00;98414.00;5016663;28;20677;-70
2022/10/25 09:20:25;;;;;;;3.60;1.20;;;;;;;15.13;100.00;98422.94;5016723;28;20234;-70
2022/10/25 09:22:59;;;;;;;3.13;1.20;;;;;;;15.13;100.00;98414.91;5016801;28;20214;-70
2022/10/25 09:25:34;;;;;;;3.40;1.50;;;;;;;15.09;100.00;98423.66;5016702;28;20202;-70
2022/10/25 09:28:06;;;;;;;3.60;1.10;;;;;;;15.46;100.00;98420.38;5016632;28;20281;-70
2022/10/25 09:30:39;;;;;;;2.20;1.10;;;;;;;15.42;100.00;98415.75;5015290;28;20231;-70
2022/10/25 09:33:29;;;;;;;4.03;1.30;;;;;;;15.39;100.00;98425.09;5016413;28;20351;-70
2022/10/25 09:35:58;;;;;;;3.70;1.50;;;;;;;15.58;100.00;98413.09;5016007;28;20285;-70
2022/10/25 09:38:46;;;;;;;5.57;1.40;;;;;;;15.52;100.00;98411.38;5016353;28;20202;-70
2022/10/25 09:41:22;;;;;;;4.10;1.20;;;;;;;15.56;100.00;98417.88;5016333;28;20322;-70
2022/10/25 09:44:06;;;;;;;5.57;1.50;;;;;;;15.56;100.00;98420.56;5015132;28;20221;-70
2022/10/25 09:46:44;;;;;;;4.27;1.20;;;;;;;15.72;100.00;98422.44;5016083;28;20746;-70
2022/10/25 09:49:40;;;;;;;3.43;1.40;;;;;;;15.71;99.97;98407.44;5016333;28;20187;-70
2022/10/25 09:52:19;;;;;;;2.93;1.23;;;;;;;15.88;100.00;98420.84;5008816;28;20217;-70
2022/10/25 09:55:06;;;;;;;3.30;1.40;;;;;;;15.92;99.95;98416.63;5013961;28;20190;-70
2022/10/25 09:57:33;;;;;;;5.13;1.43;;;;;;;15.88;97.26;98418.16;5015005;28;20194;-70
2022/10/25 09:59:59;;;;;;;3.60;1.40;;;;;;;15.89;98.98;98419.78;5014446;28;20245;-70
2022/10/25 10:02:27;;;;;;;2.90;1.40;;;;;;;15.81;94.61;98415.63;5016265;28;20215;-70
2022/10/25 10:04:54;;;;;;;4.20;1.27;;;;;;;15.58;96.45;98420.31;5015722;28;20233;-70
2022/10/25 10:07:28;;;;;;;3.43;1.40;;;;;;;15.54;98.63;98417.31;5015934;28;20207;-70
2022/10/25 10:10:01;;;;;;;3.67;1.20;;;;;;;15.70;100.00;98411.13;5015821;28;20195;-70
2022/10/25 10:12:43;;;;;;;2.87;1.23;;;;;;;15.86;98.73;98417.56;5015733;28;20191;-70
2022/10/25 10:15:22;;;;;;;4.93;1.23;;;;;;;15.97;100.00;98414.81;5015454;28;20222;-70
2022/10/25 10:18:24;;;;;;;3.60;1.33;;;;;;;16.19;93.68;98417.56;5015799;28;20198;-71
2022/10/25 10:21:11;;;;;;;5.97;1.43;;;;;;;16.34;92.42;98420.47;5015476;28;20226;-70
2022/10/25 10:23:49;;;;;;;3.77;1.20;;;;;;;16.55;89.62;98414.38;5015664;28;20214;-70
2022/10/25 10:26:43;;;;;;;4.33;1.13;;;;;;;16.60;90.65;98412.53;5015555;28;20194;-70
2022/10/25 10:29:13;;;;;;;1.27;1.10;;;;;;;16.47;91.16;98404.06;5015229;28;20191;-71
2022/10/25 10:31:44;;;;;;;2.80;1.17;;;;;;;16.64;90.52;98405.63;5015132;28;20231;-70
2022/10/25 10:34:44;;;;;;;4.80;1.50;;;;;;;16.55;91.89;98401.75;5015027;28;20218;-70
2022/10/25 10:37:16;;;;;;;3.30;0.93;;;;;;;16.65;90.25;98396.50;4982596;28;20234;-70
2022/10/25 10:39:55;;;;;;;4.03;0.90;;;;;;;16.71;88.93;98402.75;5014892;28;20293;-70
2022/10/25 10:42:42;;;;;;;2.40;1.30;;;;;;;16.76;91.16;98392.91;5014971;28;20194;-70
2022/10/25 10:45:09;;;;;;;3.60;1.30;;;;;;;16.75;88.55;98390.47;5014778;28;20694;-70
2022/10/25 10:47:35;;;;;;;4.30;1.20;;;;;;;16.72;87.10;98385.56;5014865;28;20211;-70
2022/10/25 10:50:10;;;;;;;5.97;1.43;;;;;;;16.87;89.47;98381.22;5015222;28;20329;-71
2022/10/25 10:52:42;;;;;;;3.87;1.40;;;;;;;17.06;90.79;98387.06;5015140;28;20194;-70
2022/10/25 10:55:30;;;;;;;4.03;1.37;;;;;;;17.06;87.66;98368.25;5015544;28;20218;-71
2022/10/25 10:58:02;;;;;;;3.47;1.20;;;;;;;17.06;88.36;98373.63;5014685;28;20206;-70
2022/10/25 11:00:30;;;;;;;3.20;1.30;;;;;;;17.07;86.60;98373.41;5014837;28;20230;-71
2022/10/25 11:02:57;;;;;;;4.43;1.27;;;;;;;17.32;87.30;98376.31;5014678;28;20206;-70
2022/10/25 11:05:31;;;;;;;4.53;1.10;;;;;;;17.48;84.07;98366.56;5015483;28;20214;-70
2022/10/25 11:08:16;;;;;;;4.93;1.43;;;;;;;17.45;83.50;98367.88;5014557;28;20286;-71
2022/10/25 11:10:42;;;;;;;2.67;1.30;;;;;;;17.52;84.90;98360.44;5013226;28;20233;-70
2022/10/25 11:13:20;;;;;;;3.80;1.23;;;;;;;17.78;79.63;98364.94;5014298;28;20243;-70
2022/10/25 11:16:06;;;;;;;3.40;1.33;;;;;;;17.90;80.11;98357.50;5014221;28;20613;-70
2022/10/25 11:18:49;;;;;;;3.47;1.23;;;;;;;18.14;82.54;98364.13;5013378;28;20186;-71
2022/10/25 11:21:24;;;;;;;4.13;1.20;;;;;;;18.14;81.34;98364.13;5013999;28;20392;-70
2022/10/25 11:24:11;;;;;;;4.10;1.40;;;;;;;17.97;78.94;98358.06;5014153;28;20218;-70
2022/10/25 11:26:50;;;;;;;2.47;1.10;;;;;;;17.80;78.09;98357.44;5012789;28;20206;-70
2022/10/25 11:29:16;;;;;;;1.97;1.00;;;;;;;17.82;75.92;98352.59;5013997;28;20285;-70
2022/10/25 11:31:59;;;;;;;2.57;1.20;;;;;;;17.78;75.50;98359.56;5014048;28;20233;-70
2022/10/25 11:34:44;;;;;;;3.87;1.07;;;;;;;17.92;76.91;98344.59;5014262;28;20195;-71
2022/10/25 11:37:19;;;;;;;4.10;1.40;;;;;;;17.91;75.75;98342.97;5014285;28;20193;-70
2022/10/25 11:40:12;;;;;;;4.67;1.40;;;;;;;17.88;80.08;98356.16;5013644;28;20212;-70
2022/10/25 11:43:15;;;;;;;4.13;1.27;;;;;;;17.97;74.75;98355.38;5011051;28;20209;-71
2022/10/25 11:45:45;;;;;;;2.10;1.10;;;;;;;17.88;72.58;98351.59;5013738;28;20202;-71